Grena, Denmark
Current Conditions -  °F | °C
As of 3:20 AM on Monday 26 Jan 2015 (Local Time) from EKAH Reporting Station
Moderate Fog Moderate Fog  
Wind Chill: 32°   Ceiling: 200
Heat Index: 36°   Visibility: 0.56mi
Dew Point: 36°   Wind: 5mph
Humidity: 100%   Direction: 200°SSW
Pressure: 30.06"   Gusts: NA
Location:  56.41°N, 10.89°E
Report Text: EKAH 260220Z AUTO 20004KT 130V260 0900NDV R10R/P1500DR28L/P1500N FG VV002 02/02 Q1018 R99/910195
Loading
Personal Weather Stations






























Interactive Weather Map New forecast layout! Learn more

10-Day Weather Forecast

Advertisements
Track Severe Weather on mobile